sensor_id;sensor_type;location;lat;lon;timestamp;temperature;humidity
26053;DHT22;13826;51.186;4.450;2023-05-16T00:01:55;9.80;92.30
26053;DHT22;13826;51.186;4.450;2023-05-16T00:04:20;9.90;91.40
26053;DHT22;13826;51.186;4.450;2023-05-16T00:06:47;9.90;89.20
26053;DHT22;13826;51.186;4.450;2023-05-16T00:09:12;9.90;91.20
26053;DHT22;13826;51.186;4.450;2023-05-16T00:11:38;9.80;93.00
26053;DHT22;13826;51.186;4.450;2023-05-16T00:14:03;9.80;94.30
26053;DHT22;13826;51.186;4.450;2023-05-16T00:16:29;9.80;91.80
26053;DHT22;13826;51.186;4.450;2023-05-16T00:18:55;9.80;92.30
26053;DHT22;13826;51.186;4.450;2023-05-16T00:21:22;9.80;91.20
26053;DHT22;13826;51.186;4.450;2023-05-16T00:23:47;9.70;94.50
26053;DHT22;13826;51.186;4.450;2023-05-16T00:26:13;9.80;92.50
26053;DHT22;13826;51.186;4.450;2023-05-16T00:28:39;9.70;92.10
26053;DHT22;13826;51.186;4.450;2023-05-16T00:31:04;9.60;95.20
26053;DHT22;13826;51.186;4.450;2023-05-16T00:33:30;9.60;93.10
26053;DHT22;13826;51.186;4.450;2023-05-16T00:35:56;9.60;94.20
26053;DHT22;13826;51.186;4.450;2023-05-16T00:38:21;9.60;93.00
26053;DHT22;13826;51.186;4.450;2023-05-16T00:40:47;9.60;92.80
26053;DHT22;13826;51.186;4.450;2023-05-16T00:43:12;9.50;92.40
26053;DHT22;13826;51.186;4.450;2023-05-16T00:45:38;9.50;94.10
26053;DHT22;13826;51.186;4.450;2023-05-16T00:48:03;9.50;94.80
26053;DHT22;13826;51.186;4.450;2023-05-16T00:50:29;9.50;95.90
26053;DHT22;13826;51.186;4.450;2023-05-16T00:52:55;9.50;95.90
26053;DHT22;13826;51.186;4.450;2023-05-16T00:55:20;9.60;96.60
26053;DHT22;13826;51.186;4.450;2023-05-16T00:57:46;9.60;95.80
26053;DHT22;13826;51.186;4.450;2023-05-16T01:00:12;9.60;94.00
26053;DHT22;13826;51.186;4.450;2023-05-16T01:02:39;9.60;94.40
26053;DHT22;13826;51.186;4.450;2023-05-16T01:05:05;9.60;93.20
26053;DHT22;13826;51.186;4.450;2023-05-16T01:07:33;9.50;95.30
26053;DHT22;13826;51.186;4.450;2023-05-16T01:09:58;9.50;96.30
26053;DHT22;13826;51.186;4.450;2023-05-16T01:12:28;9.50;93.00
26053;DHT22;13826;51.186;4.450;2023-05-16T01:15:04;9.50;94.10
26053;DHT22;13826;51.186;4.450;2023-05-16T01:20:10;9.50;95.50
26053;DHT22;13826;51.186;4.450;2023-05-16T01:28:00;9.30;94.00
26053;DHT22;13826;51.186;4.450;2023-05-16T01:30:26;9.20;95.30
26053;DHT22;13826;51.186;4.450;2023-05-16T01:32:51;9.20;95.10
26053;DHT22;13826;51.186;4.450;2023-05-16T01:35:17;9.30;96.20
26053;DHT22;13826;51.186;4.450;2023-05-16T01:43:12;9.20;93.80
26053;DHT22;13826;51.186;4.450;2023-05-16T01:45:50;9.20;94.50
26053;DHT22;13826;51.186;4.450;2023-05-16T01:48:20;9.20;96.30
26053;DHT22;13826;51.186;4.450;2023-05-16T01:50:48;9.20;95.80
26053;DHT22;13826;51.186;4.450;2023-05-16T01:53:21;9.20;96.20
26053;DHT22;13826;51.186;4.450;2023-05-16T01:55:48;9.20;96.30
26053;DHT22;13826;51.186;4.450;2023-05-16T01:58:14;9.20;96.50
26053;DHT22;13826;51.186;4.450;2023-05-16T02:00:40;9.10;97.40
26053;DHT22;13826;51.186;4.450;2023-05-16T02:03:06;9.10;98.80
26053;DHT22;13826;51.186;4.450;2023-05-16T02:05:32;9.10;99.00
26053;DHT22;13826;51.186;4.450;2023-05-16T02:07:58;9.20;95.20
26053;DHT22;13826;51.186;4.450;2023-05-16T02:10:23;9.20;92.70
26053;DHT22;13826;51.186;4.450;2023-05-16T02:12:50;9.30;92.70
26053;DHT22;13826;51.186;4.450;2023-05-16T02:15:16;9.30;91.40
26053;DHT22;13826;51.186;4.450;2023-05-16T02:17:41;9.30;90.50
26053;DHT22;13826;51.186;4.450;2023-05-16T02:20:07;9.30;91.50
26053;DHT22;13826;51.186;4.450;2023-05-16T02:22:36;9.20;90.10
26053;DHT22;13826;51.186;4.450;2023-05-16T02:25:03;9.10;91.10
26053;DHT22;13826;51.186;4.450;2023-05-16T02:27:29;9.00;93.00
26053;DHT22;13826;51.186;4.450;2023-05-16T02:29:55;9.00;94.00
26053;DHT22;13826;51.186;4.450;2023-05-16T02:32:20;9.00;94.90
26053;DHT22;13826;51.186;4.450;2023-05-16T02:34:46;9.00;95.00
26053;DHT22;13826;51.186;4.450;2023-05-16T02:37:11;8.90;95.50
26053;DHT22;13826;51.186;4.450;2023-05-16T02:39:37;8.90;96.60
26053;DHT22;13826;51.186;4.450;2023-05-16T02:42:03;8.90;97.40
26053;DHT22;13826;51.186;4.450;2023-05-16T02:44:29;8.90;98.10
26053;DHT22;13826;51.186;4.450;2023-05-16T02:46:54;8.90;97.60
26053;DHT22;13826;51.186;4.450;2023-05-16T02:49:20;9.00;97.90
26053;DHT22;13826;51.186;4.450;2023-05-16T02:51:45;9.10;96.30
26053;DHT22;13826;51.186;4.450;2023-05-16T02:54:11;9.30;93.00
26053;DHT22;13826;51.186;4.450;2023-05-16T02:56:37;9.20;92.40
26053;DHT22;13826;51.186;4.450;2023-05-16T02:59:03;9.10;93.90
26053;DHT22;13826;51.186;4.450;2023-05-16T03:01:29;9.10;95.60
26053;DHT22;13826;51.186;4.450;2023-05-16T03:03:54;9.10;95.80
26053;DHT22;13826;51.186;4.450;2023-05-16T03:06:20;9.10;96.60
26053;DHT22;13826;51.186;4.450;2023-05-16T03:08:45;9.00;97.00
26053;DHT22;13826;51.186;4.450;2023-05-16T03:11:11;9.00;97.30
26053;DHT22;13826;51.186;4.450;2023-05-16T03:13:37;9.00;97.90
26053;DHT22;13826;51.186;4.450;2023-05-16T03:16:03;9.00;97.10
26053;DHT22;13826;51.186;4.450;2023-05-16T03:18:29;9.00;96.90
26053;DHT22;13826;51.186;4.450;2023-05-16T03:20:54;9.00;96.90
26053;DHT22;13826;51.186;4.450;2023-05-16T03:23:20;9.00;96.30
26053;DHT22;13826;51.186;4.450;2023-05-16T03:25:46;9.00;96.70
26053;DHT22;13826;51.186;4.450;2023-05-16T03:28:12;9.00;97.60
26053;DHT22;13826;51.186;4.450;2023-05-16T03:30:38;9.00;97.10
26053;DHT22;13826;51.186;4.450;2023-05-16T03:33:03;9.00;95.40
26053;DHT22;13826;51.186;4.450;2023-05-16T03:35:30;8.90;96.70
26053;DHT22;13826;51.186;4.450;2023-05-16T03:37:56;8.90;97.50
26053;DHT22;13826;51.186;4.450;2023-05-16T03:40:21;8.90;98.70
26053;DHT22;13826;51.186;4.450;2023-05-16T03:42:47;8.90;97.90
26053;DHT22;13826;51.186;4.450;2023-05-16T03:45:13;8.90;98.40
26053;DHT22;13826;51.186;4.450;2023-05-16T03:47:38;8.90;98.50
26053;DHT22;13826;51.186;4.450;2023-05-16T03:50:04;8.90;99.20
26053;DHT22;13826;51.186;4.450;2023-05-16T03:52:30;8.90;99.90
26053;DHT22;13826;51.186;4.450;2023-05-16T03:54:55;8.90;99.90
26053;DHT22;13826;51.186;4.450;2023-05-16T03:57:21;9.00;98.60
26053;DHT22;13826;51.186;4.450;2023-05-16T03:59:47;9.10;98.10
26053;DHT22;13826;51.186;4.450;2023-05-16T04:02:12;9.00;98.00
26053;DHT22;13826;51.186;4.450;2023-05-16T04:04:38;9.10;98.70
26053;DHT22;13826;51.186;4.450;2023-05-16T04:07:03;9.10;96.50
26053;DHT22;13826;51.186;4.450;2023-05-16T04:09:29;9.20;95.50
26053;DHT22;13826;51.186;4.450;2023-05-16T04:11:55;9.10;96.30
26053;DHT22;13826;51.186;4.450;2023-05-16T04:14:24;9.20;96.20
26053;DHT22;13826;51.186;4.450;2023-05-16T04:16:49;9.20;95.10
26053;DHT22;13826;51.186;4.450;2023-05-16T04:19:16;9.20;95.10
26053;DHT22;13826;51.186;4.450;2023-05-16T04:21:41;9.30;95.80
26053;DHT22;13826;51.186;4.450;2023-05-16T04:24:07;9.40;94.40
26053;DHT22;13826;51.186;4.450;2023-05-16T04:26:32;9.40;92.70
26053;DHT22;13826;51.186;4.450;2023-05-16T04:28:58;9.50;91.80
26053;DHT22;13826;51.186;4.450;2023-05-16T04:31:24;9.60;88.00
26053;DHT22;13826;51.186;4.450;2023-05-16T04:33:50;9.60;80.30
26053;DHT22;13826;51.186;4.450;2023-05-16T04:36:15;9.60;82.90
26053;DHT22;13826;51.186;4.450;2023-05-16T04:38:41;9.60;86.60
26053;DHT22;13826;51.186;4.450;2023-05-16T04:41:07;9.60;83.50
26053;DHT22;13826;51.186;4.450;2023-05-16T04:43:32;9.70;83.30
26053;DHT22;13826;51.186;4.450;2023-05-16T04:45:58;9.70;75.80
26053;DHT22;13826;51.186;4.450;2023-05-16T04:48:24;9.80;72.60
26053;DHT22;13826;51.186;4.450;2023-05-16T04:50:49;9.90;68.20
26053;DHT22;13826;51.186;4.450;2023-05-16T04:53:15;10.10;59.40
26053;DHT22;13826;51.186;4.450;2023-05-16T04:55:41;10.40;44.70
26053;DHT22;13826;51.186;4.450;2023-05-16T04:58:06;10.40;28.40
26053;DHT22;13826;51.186;4.450;2023-05-16T05:00:32;10.90;39.50
26053;DHT22;13826;51.186;4.450;2023-05-16T05:02:58;11.70;1.00
26053;DHT22;13826;51.186;4.450;2023-05-16T05:05:23;13.00;1.00
26053;DHT22;13826;51.186;4.450;2023-05-16T05:07:49;14.00;99.90
26053;DHT22;13826;51.186;4.450;2023-05-16T05:10:15;15.30;99.90
26053;DHT22;13826;51.186;4.450;2023-05-16T05:12:40;15.70;1.00
26053;DHT22;13826;51.186;4.450;2023-05-16T05:15:06;15.90;27.80
26053;DHT22;13826;51.186;4.450;2023-05-16T05:17:32;16.10;1.00
26053;DHT22;13826;51.186;4.450;2023-05-16T05:19:58;16.60;99.90
26053;DHT22;13826;51.186;4.450;2023-05-16T05:22:23;17.00;1.00
26053;DHT22;13826;51.186;4.450;2023-05-16T05:24:49;17.40;99.90
26053;DHT22;13826;51.186;4.450;2023-05-16T05:27:14;18.00;99.90
26053;DHT22;13826;51.186;4.450;2023-05-16T05:29:40;17.70;99.90
26053;DHT22;13826;51.186;4.450;2023-05-16T05:32:06;17.20;1.00
26053;DHT22;13826;51.186;4.450;2023-05-16T05:34:32;18.20;99.90
26053;DHT22;13826;51.186;4.450;2023-05-16T05:36:58;18.40;99.90
26053;DHT22;13826;51.186;4.450;2023-05-16T05:39:24;18.80;73.60
26053;DHT22;13826;51.186;4.450;2023-05-16T05:41:50;18.40;1.00
26053;DHT22;13826;51.186;4.450;2023-05-16T05:44:15;19.30;1.00
26053;DHT22;13826;51.186;4.450;2023-05-16T05:46:41;19.20;1.00
26053;DHT22;13826;51.186;4.450;2023-05-16T05:49:07;19.30;1.00
26053;DHT22;13826;51.186;4.450;2023-05-16T05:51:32;19.60;1.00
26053;DHT22;13826;51.186;4.450;2023-05-16T05:53:58;19.90;1.00
26053;DHT22;13826;51.186;4.450;2023-05-16T05:56:24;19.80;1.00
26053;DHT22;13826;51.186;4.450;2023-05-16T05:58:49;19.90;1.00
26053;DHT22;13826;51.186;4.450;2023-05-16T06:01:15;19.70;1.00
26053;DHT22;13826;51.186;4.450;2023-05-16T06:03:41;20.30;1.00
26053;DHT22;13826;51.186;4.450;2023-05-16T06:06:07;21.10;99.90
26053;DHT22;13826;51.186;4.450;2023-05-16T06:08:33;22.00;99.90
26053;DHT22;13826;51.186;4.450;2023-05-16T06:10:58;21.90;99.90
26053;DHT22;13826;51.186;4.450;2023-05-16T06:13:24;22.30;99.90
26053;DHT22;13826;51.186;4.450;2023-05-16T06:15:50;22.00;99.90
26053;DHT22;13826;51.186;4.450;2023-05-16T06:18:16;21.40;99.90
26053;DHT22;13826;51.186;4.450;2023-05-16T06:20:41;22.50;99.90
26053;DHT22;13826;51.186;4.450;2023-05-16T06:23:07;21.00;99.90
26053;DHT22;13826;51.186;4.450;2023-05-16T06:25:33;20.90;99.90
26053;DHT22;13826;51.186;4.450;2023-05-16T06:27:58;21.30;99.90
26053;DHT22;13826;51.186;4.450;2023-05-16T06:30:24;21.40;99.90
26053;DHT22;13826;51.186;4.450;2023-05-16T06:32:49;22.20;99.90
26053;DHT22;13826;51.186;4.450;2023-05-16T06:35:15;24.10;99.90
26053;DHT22;13826;51.186;4.450;2023-05-16T06:37:41;25.10;99.90
26053;DHT22;13826;51.186;4.450;2023-05-16T06:40:06;25.30;99.90
26053;DHT22;13826;51.186;4.450;2023-05-16T06:42:32;24.60;99.90
26053;DHT22;13826;51.186;4.450;2023-05-16T06:44:58;23.20;99.90
26053;DHT22;13826;51.186;4.450;2023-05-16T06:47:23;20.60;99.90
26053;DHT22;13826;51.186;4.450;2023-05-16T06:49:49;19.00;99.90
26053;DHT22;13826;51.186;4.450;2023-05-16T06:52:15;20.10;99.90
26053;DHT22;13826;51.186;4.450;2023-05-16T06:54:52;21.10;99.90
26053;DHT22;13826;51.186;4.450;2023-05-16T06:57:27;22.90;99.90
26053;DHT22;13826;51.186;4.450;2023-05-16T06:59:53;23.70;99.90
26053;DHT22;13826;51.186;4.450;2023-05-16T07:02:19;24.30;99.90
26053;DHT22;13826;51.186;4.450;2023-05-16T07:04:44;24.30;99.90
26053;DHT22;13826;51.186;4.450;2023-05-16T07:07:10;24.10;99.90
26053;DHT22;13826;51.186;4.450;2023-05-16T07:09:35;22.60;99.90
26053;DHT22;13826;51.186;4.450;2023-05-16T07:12:01;21.90;99.90
26053;DHT22;13826;51.186;4.450;2023-05-16T07:14:26;20.40;99.90
26053;DHT22;13826;51.186;4.450;2023-05-16T07:16:52;19.70;99.90
26053;DHT22;13826;51.186;4.450;2023-05-16T07:19:18;19.40;99.90
26053;DHT22;13826;51.186;4.450;2023-05-16T07:21:44;19.60;99.90
26053;DHT22;13826;51.186;4.450;2023-05-16T07:24:09;19.30;99.90
26053;DHT22;13826;51.186;4.450;2023-05-16T07:26:35;18.30;99.90
26053;DHT22;13826;51.186;4.450;2023-05-16T07:29:01;17.00;1.00
26053;DHT22;13826;51.186;4.450;2023-05-16T07:31:28;17.00;1.00
26053;DHT22;13826;51.186;4.450;2023-05-16T07:33:54;17.00;99.20
26053;DHT22;13826;51.186;4.450;2023-05-16T07:36:19;17.20;54.60
26053;DHT22;13826;51.186;4.450;2023-05-16T07:38:45;17.50;1.70
26053;DHT22;13826;51.186;4.450;2023-05-16T07:41:11;17.10;99.30
26053;DHT22;13826;51.186;4.450;2023-05-16T07:43:36;17.10;33.30
26053;DHT22;13826;51.186;4.450;2023-05-16T07:46:02;16.50;99.90
26053;DHT22;13826;51.186;4.450;2023-05-16T07:48:27;18.80;1.00
26053;DHT22;13826;51.186;4.450;2023-05-16T07:50:53;20.50;99.90
26053;DHT22;13826;51.186;4.450;2023-05-16T07:53:20;22.50;99.90
26053;DHT22;13826;51.186;4.450;2023-05-16T07:55:46;21.70;99.90
26053;DHT22;13826;51.186;4.450;2023-05-16T07:58:11;22.50;99.90
26053;DHT22;13826;51.186;4.450;2023-05-16T08:00:37;22.40;99.90
26053;DHT22;13826;51.186;4.450;2023-05-16T08:03:05;21.60;99.90
26053;DHT22;13826;51.186;4.450;2023-05-16T08:05:31;20.20;99.90
26053;DHT22;13826;51.186;4.450;2023-05-16T08:07:56;19.50;99.90
26053;DHT22;13826;51.186;4.450;2023-05-16T08:10:22;20.30;99.90
26053;DHT22;13826;51.186;4.450;2023-05-16T08:12:48;22.40;99.90
26053;DHT22;13826;51.186;4.450;2023-05-16T08:15:14;25.20;99.90
26053;DHT22;13826;51.186;4.450;2023-05-16T08:17:39;26.20;99.90
26053;DHT22;13826;51.186;4.450;2023-05-16T08:20:05;25.60;99.90
26053;DHT22;13826;51.186;4.450;2023-05-16T08:22:31;25.40;99.90
26053;DHT22;13826;51.186;4.450;2023-05-16T08:24:57;25.10;99.90
26053;DHT22;13826;51.186;4.450;2023-05-16T08:27:27;23.80;99.90
26053;DHT22;13826;51.186;4.450;2023-05-16T08:29:53;23.20;99.90
26053;DHT22;13826;51.186;4.450;2023-05-16T08:32:20;22.30;99.90
26053;DHT22;13826;51.186;4.450;2023-05-16T08:34:45;22.30;99.90
26053;DHT22;13826;51.186;4.450;2023-05-16T08:37:11;22.80;99.90
26053;DHT22;13826;51.186;4.450;2023-05-16T08:39:39;22.90;99.90
26053;DHT22;13826;51.186;4.450;2023-05-16T08:42:05;22.30;99.90
26053;DHT22;13826;51.186;4.450;2023-05-16T08:44:31;23.00;99.90
26053;DHT22;13826;51.186;4.450;2023-05-16T08:46:57;21.80;99.90
26053;DHT22;13826;51.186;4.450;2023-05-16T08:49:26;22.00;99.90
26053;DHT22;13826;51.186;4.450;2023-05-16T08:51:51;22.80;99.90
26053;DHT22;13826;51.186;4.450;2023-05-16T08:54:18;23.70;99.90
26053;DHT22;13826;51.186;4.450;2023-05-16T08:56:44;22.70;99.90
26053;DHT22;13826;51.186;4.450;2023-05-16T08:59:10;22.60;99.90
26053;DHT22;13826;51.186;4.450;2023-05-16T09:01:39;22.90;99.90
26053;DHT22;13826;51.186;4.450;2023-05-16T09:04:05;23.80;99.90
26053;DHT22;13826;51.186;4.450;2023-05-16T09:06:36;25.30;99.90
26053;DHT22;13826;51.186;4.450;2023-05-16T09:09:02;25.40;99.90
26053;DHT22;13826;51.186;4.450;2023-05-16T09:11:28;26.60;92.80
26053;DHT22;13826;51.186;4.450;2023-05-16T09:13:54;26.90;70.30
26053;DHT22;13826;51.186;4.450;2023-05-16T09:16:20;28.00;57.00
26053;DHT22;13826;51.186;4.450;2023-05-16T09:18:52;28.40;47.70
26053;DHT22;13826;51.186;4.450;2023-05-16T09:21:18;28.40;38.50
26053;DHT22;13826;51.186;4.450;2023-05-16T09:23:43;28.60;26.10
26053;DHT22;13826;51.186;4.450;2023-05-16T09:26:09;28.10;25.50
26053;DHT22;13826;51.186;4.450;2023-05-16T09:28:38;28.70;25.10
26053;DHT22;13826;51.186;4.450;2023-05-16T09:31:17;28.60;25.20
26053;DHT22;13826;51.186;4.450;2023-05-16T09:33:43;27.80;21.30
26053;DHT22;13826;51.186;4.450;2023-05-16T09:36:09;27.50;19.00
26053;DHT22;13826;51.186;4.450;2023-05-16T09:38:34;25.30;17.60
26053;DHT22;13826;51.186;4.450;2023-05-16T09:41:00;23.20;26.40
26053;DHT22;13826;51.186;4.450;2023-05-16T09:43:26;25.20;33.40
26053;DHT22;13826;51.186;4.450;2023-05-16T09:45:52;25.90;22.40
26053;DHT22;13826;51.186;4.450;2023-05-16T09:48:20;27.70;24.30
26053;DHT22;13826;51.186;4.450;2023-05-16T09:50:49;26.90;18.20
26053;DHT22;13826;51.186;4.450;2023-05-16T09:53:17;27.90;21.20
26053;DHT22;13826;51.186;4.450;2023-05-16T09:55:43;26.40;19.50
26053;DHT22;13826;51.186;4.450;2023-05-16T09:58:09;25.40;12.60
26053;DHT22;13826;51.186;4.450;2023-05-16T10:00:35;24.20;23.00
26053;DHT22;13826;51.186;4.450;2023-05-16T10:03:01;24.80;30.80
26053;DHT22;13826;51.186;4.450;2023-05-16T10:05:27;23.50;27.90
26053;DHT22;13826;51.186;4.450;2023-05-16T10:07:57;23.30;39.00
26053;DHT22;13826;51.186;4.450;2023-05-16T10:10:23;22.60;41.20
26053;DHT22;13826;51.186;4.450;2023-05-16T10:12:52;22.00;54.50
26053;DHT22;13826;51.186;4.450;2023-05-16T10:15:20;21.50;66.20
26053;DHT22;13826;51.186;4.450;2023-05-16T10:17:48;20.70;89.20
26053;DHT22;13826;51.186;4.450;2023-05-16T10:20:15;20.30;99.90
26053;DHT22;13826;51.186;4.450;2023-05-16T10:22:44;20.30;99.90
26053;DHT22;13826;51.186;4.450;2023-05-16T10:25:16;22.30;99.90
26053;DHT22;13826;51.186;4.450;2023-05-16T10:27:44;24.20;99.10
26053;DHT22;13826;51.186;4.450;2023-05-16T10:30:11;25.20;65.20
26053;DHT22;13826;51.186;4.450;2023-05-16T10:32:37;24.50;55.80
26053;DHT22;13826;51.186;4.450;2023-05-16T10:35:04;22.80;64.20
26053;DHT22;13826;51.186;4.450;2023-05-16T10:37:30;21.90;82.70
26053;DHT22;13826;51.186;4.450;2023-05-16T10:39:57;20.70;99.90
26053;DHT22;13826;51.186;4.450;2023-05-16T10:42:23;20.50;99.90
26053;DHT22;13826;51.186;4.450;2023-05-16T10:44:52;19.90;99.90
26053;DHT22;13826;51.186;4.450;2023-05-16T10:47:18;19.60;99.90
26053;DHT22;13826;51.186;4.450;2023-05-16T10:49:44;20.90;99.90
26053;DHT22;13826;51.186;4.450;2023-05-16T10:52:10;22.50;99.90
26053;DHT22;13826;51.186;4.450;2023-05-16T10:54:37;22.10;99.90
26053;DHT22;13826;51.186;4.450;2023-05-16T10:57:04;21.10;99.90
26053;DHT22;13826;51.186;4.450;2023-05-16T10:59:38;21.30;99.90
26053;DHT22;13826;51.186;4.450;2023-05-16T11:02:19;22.50;99.90
26053;DHT22;13826;51.186;4.450;2023-05-16T11:04:48;22.10;99.90
26053;DHT22;13826;51.186;4.450;2023-05-16T11:07:19;21.30;99.90
26053;DHT22;13826;51.186;4.450;2023-05-16T11:09:49;21.60;99.90
26053;DHT22;13826;51.186;4.450;2023-05-16T11:12:19;23.30;99.90
26053;DHT22;13826;51.186;4.450;2023-05-16T11:14:45;24.80;66.50
26053;DHT22;13826;51.186;4.450;2023-05-16T11:19:41;22.70;80.20
26053;DHT22;13826;51.186;4.450;2023-05-16T11:24:36;20.40;99.90
26053;DHT22;13826;51.186;4.450;2023-05-16T11:27:06;20.70;99.90
26053;DHT22;13826;51.186;4.450;2023-05-16T11:29:32;22.40;99.90
26053;DHT22;13826;51.186;4.450;2023-05-16T11:31:59;24.30;97.20
26053;DHT22;13826;51.186;4.450;2023-05-16T11:34:25;23.70;73.70
26053;DHT22;13826;51.186;4.450;2023-05-16T11:36:50;22.20;75.20
26053;DHT22;13826;51.186;4.450;2023-05-16T11:39:22;21.40;91.50
26053;DHT22;13826;51.186;4.450;2023-05-16T11:41:50;21.10;99.90
26053;DHT22;13826;51.186;4.450;2023-05-16T11:44:17;21.90;99.70
26053;DHT22;13826;51.186;4.450;2023-05-16T11:46:43;23.10;88.60
26053;DHT22;13826;51.186;4.450;2023-05-16T11:49:08;23.20;68.70
26053;DHT22;13826;51.186;4.450;2023-05-16T11:51:36;23.40;57.10
26053;DHT22;13826;51.186;4.450;2023-05-16T11:54:02;23.00;64.50
26053;DHT22;13826;51.186;4.450;2023-05-16T11:56:29;21.90;79.20
26053;DHT22;13826;51.186;4.450;2023-05-16T11:58:57;21.50;89.60
26053;DHT22;13826;51.186;4.450;2023-05-16T12:01:23;20.90;97.50
26053;DHT22;13826;51.186;4.450;2023-05-16T12:03:55;20.30;91.20
26053;DHT22;13826;51.186;4.450;2023-05-16T12:06:24;20.00;99.90
26053;DHT22;13826;51.186;4.450;2023-05-16T12:08:50;20.30;99.90
26053;DHT22;13826;51.186;4.450;2023-05-16T12:11:16;20.00;99.90
26053;DHT22;13826;51.186;4.450;2023-05-16T12:13:42;20.60;99.90
26053;DHT22;13826;51.186;4.450;2023-05-16T12:16:07;20.90;99.90
26053;DHT22;13826;51.186;4.450;2023-05-16T12:18:35;20.90;99.90
26053;DHT22;13826;51.186;4.450;2023-05-16T12:21:03;20.60;99.90
26053;DHT22;13826;51.186;4.450;2023-05-16T12:23:31;20.40;99.90
26053;DHT22;13826;51.186;4.450;2023-05-16T12:25:57;20.20;99.90
26053;DHT22;13826;51.186;4.450;2023-05-16T12:28:29;20.20;99.90
26053;DHT22;13826;51.186;4.450;2023-05-16T12:30:56;20.30;99.90
26053;DHT22;13826;51.186;4.450;2023-05-16T12:33:21;20.40;99.90
26053;DHT22;13826;51.186;4.450;2023-05-16T12:35:47;20.00;99.90
26053;DHT22;13826;51.186;4.450;2023-05-16T12:38:13;20.00;99.90
26053;DHT22;13826;51.186;4.450;2023-05-16T12:40:39;20.00;99.90
26053;DHT22;13826;51.186;4.450;2023-05-16T12:43:15;19.70;99.90
26053;DHT22;13826;51.186;4.450;2023-05-16T12:45:41;19.80;99.90
26053;DHT22;13826;51.186;4.450;2023-05-16T12:48:11;19.90;99.90
26053;DHT22;13826;51.186;4.450;2023-05-16T12:50:37;19.70;99.90
26053;DHT22;13826;51.186;4.450;2023-05-16T12:53:03;19.50;99.90
26053;DHT22;13826;51.186;4.450;2023-05-16T12:55:28;19.70;99.90
26053;DHT22;13826;51.186;4.450;2023-05-16T12:57:54;20.20;99.90
26053;DHT22;13826;51.186;4.450;2023-05-16T13:00:20;20.10;99.90
26053;DHT22;13826;51.186;4.450;2023-05-16T13:02:46;19.80;99.90
26053;DHT22;13826;51.186;4.450;2023-05-16T13:05:12;19.90;99.90
26053;DHT22;13826;51.186;4.450;2023-05-16T13:07:38;19.70;99.90
26053;DHT22;13826;51.186;4.450;2023-05-16T13:10:11;19.70;99.90
26053;DHT22;13826;51.186;4.450;2023-05-16T13:12:37;19.50;99.90
26053;DHT22;13826;51.186;4.450;2023-05-16T13:15:03;19.30;99.90
26053;DHT22;13826;51.186;4.450;2023-05-16T13:17:33;19.10;99.90
26053;DHT22;13826;51.186;4.450;2023-05-16T13:19:58;19.80;99.90
26053;DHT22;13826;51.186;4.450;2023-05-16T13:22:24;20.30;99.90
26053;DHT22;13826;51.186;4.450;2023-05-16T13:24:50;20.10;99.90
26053;DHT22;13826;51.186;4.450;2023-05-16T13:27:15;20.30;99.90
26053;DHT22;13826;51.186;4.450;2023-05-16T13:29:42;20.10;99.90
26053;DHT22;13826;51.186;4.450;2023-05-16T13:32:08;20.10;99.90
26053;DHT22;13826;51.186;4.450;2023-05-16T13:34:33;19.60;99.90
26053;DHT22;13826;51.186;4.450;2023-05-16T13:36:59;19.70;99.90
26053;DHT22;13826;51.186;4.450;2023-05-16T13:39:25;20.30;99.90
26053;DHT22;13826;51.186;4.450;2023-05-16T13:41:50;20.60;99.90
26053;DHT22;13826;51.186;4.450;2023-05-16T13:44:16;20.40;99.90
26053;DHT22;13826;51.186;4.450;2023-05-16T13:46:42;20.40;99.90
26053;DHT22;13826;51.186;4.450;2023-05-16T13:49:08;20.50;99.90
26053;DHT22;13826;51.186;4.450;2023-05-16T13:51:33;20.60;99.90
26053;DHT22;13826;51.186;4.450;2023-05-16T13:53:59;20.50;99.90
26053;DHT22;13826;51.186;4.450;2023-05-16T13:56:25;19.90;99.90
26053;DHT22;13826;51.186;4.450;2023-05-16T13:58:51;19.60;99.90
26053;DHT22;13826;51.186;4.450;2023-05-16T14:01:16;19.50;99.90
26053;DHT22;13826;51.186;4.450;2023-05-16T14:03:45;19.10;99.90
26053;DHT22;13826;51.186;4.450;2023-05-16T14:06:11;19.30;99.90
26053;DHT22;13826;51.186;4.450;2023-05-16T14:08:37;19.50;99.90
26053;DHT22;13826;51.186;4.450;2023-05-16T14:11:03;19.40;99.90
26053;DHT22;13826;51.186;4.450;2023-05-16T14:13:28;19.60;99.90
26053;DHT22;13826;51.186;4.450;2023-05-16T14:15:54;19.80;99.90
26053;DHT22;13826;51.186;4.450;2023-05-16T14:18:19;20.00;99.90
26053;DHT22;13826;51.186;4.450;2023-05-16T14:20:45;20.10;99.90
26053;DHT22;13826;51.186;4.450;2023-05-16T14:23:11;19.60;99.90
26053;DHT22;13826;51.186;4.450;2023-05-16T14:25:36;19.60;99.90
26053;DHT22;13826;51.186;4.450;2023-05-16T14:28:02;19.30;99.90
26053;DHT22;13826;51.186;4.450;2023-05-16T14:30:27;19.30;99.90
26053;DHT22;13826;51.186;4.450;2023-05-16T14:32:53;19.40;99.90
26053;DHT22;13826;51.186;4.450;2023-05-16T14:35:18;19.20;99.90
26053;DHT22;13826;51.186;4.450;2023-05-16T14:37:44;19.20;99.90
26053;DHT22;13826;51.186;4.450;2023-05-16T14:40:10;19.20;99.90
26053;DHT22;13826;51.186;4.450;2023-05-16T14:42:35;19.00;99.90
26053;DHT22;13826;51.186;4.450;2023-05-16T14:45:01;19.00;99.90
26053;DHT22;13826;51.186;4.450;2023-05-16T14:47:27;18.50;99.90
26053;DHT22;13826;51.186;4.450;2023-05-16T14:49:53;18.50;99.90
26053;DHT22;13826;51.186;4.450;2023-05-16T14:52:19;18.50;99.90
26053;DHT22;13826;51.186;4.450;2023-05-16T14:54:45;18.50;99.90
26053;DHT22;13826;51.186;4.450;2023-05-16T14:57:13;18.70;99.90
26053;DHT22;13826;51.186;4.450;2023-05-16T14:59:38;18.60;99.90
26053;DHT22;13826;51.186;4.450;2023-05-16T15:02:04;18.80;99.90
26053;DHT22;13826;51.186;4.450;2023-05-16T15:04:31;18.90;99.90
26053;DHT22;13826;51.186;4.450;2023-05-16T15:06:56;18.90;99.90
26053;DHT22;13826;51.186;4.450;2023-05-16T15:09:22;18.60;99.90
26053;DHT22;13826;51.186;4.450;2023-05-16T15:11:47;18.70;99.90
26053;DHT22;13826;51.186;4.450;2023-05-16T15:14:13;18.60;99.90
26053;DHT22;13826;51.186;4.450;2023-05-16T15:16:38;18.80;99.90
26053;DHT22;13826;51.186;4.450;2023-05-16T15:19:04;19.00;99.90
26053;DHT22;13826;51.186;4.450;2023-05-16T15:21:30;18.80;99.90
26053;DHT22;13826;51.186;4.450;2023-05-16T15:23:57;18.70;99.90
26053;DHT22;13826;51.186;4.450;2023-05-16T15:26:22;18.50;99.90
26053;DHT22;13826;51.186;4.450;2023-05-16T15:28:49;18.30;99.90
26053;DHT22;13826;51.186;4.450;2023-05-16T15:31:14;18.30;99.90
26053;DHT22;13826;51.186;4.450;2023-05-16T15:33:40;18.20;99.90
26053;DHT22;13826;51.186;4.450;2023-05-16T15:36:05;18.20;99.90
26053;DHT22;13826;51.186;4.450;2023-05-16T15:38:31;18.10;99.90
26053;DHT22;13826;51.186;4.450;2023-05-16T15:40:57;18.00;99.90
26053;DHT22;13826;51.186;4.450;2023-05-16T15:43:22;18.00;99.90
26053;DHT22;13826;51.186;4.450;2023-05-16T15:45:48;17.90;99.90
26053;DHT22;13826;51.186;4.450;2023-05-16T15:48:14;17.80;99.90